Time;durP1;ratioP1;P1;durP2;ratioP2;P2;SDS_P1;SDS_P2;PMS_P1;PMS_P2;Temp;Humidity;BMP_temperature;BMP_pressure;BME280_temperature;BME280_humidity;BME280_pressure;Samples;Min_cycle;Max_cycle;Signal;HPM_P1;HPM_P2
2021/09/23 00:00:21;;;;;;;13.35;7.75;;;6.70;99.90;;;;;;4994755;28;20062;-86
2021/09/23 00:03:00;;;;;;;12.57;7.07;;;6.60;99.90;;;;;;4995945;28;20450;-85
2021/09/23 00:05:30;;;;;;;10.10;7.40;;;6.60;99.90;;;;;;4995713;28;20058;-85
2021/09/23 00:07:59;;;;;;;9.82;7.53;;;6.50;99.90;;;;;;4995663;28;20049;-85
2021/09/23 00:10:29;;;;;;;10.77;7.45;;;6.60;99.90;;;;;;4994566;28;20058;-85
2021/09/23 00:12:56;;;;;;;13.00;6.80;;;6.50;99.90;;;;;;4995913;28;20057;-86
2021/09/23 00:15:24;;;;;;;9.10;7.00;;;6.50;99.90;;;;;;4994390;28;20085;-85
2021/09/23 00:17:58;;;;;;;12.90;6.72;;;6.50;99.90;;;;;;4994822;28;20054;-86
2021/09/23 00:20:28;;;;;;;8.88;6.57;;;6.40;99.90;;;;;;4994380;28;20078;-86
2021/09/23 00:22:55;;;;;;;13.82;7.35;;;6.40;99.90;;;;;;4994373;28;20438;-86
2021/09/23 00:25:25;;;;;;;12.55;6.70;;;6.40;99.90;;;;;;4995069;28;20053;-86
2021/09/23 00:27:54;;;;;;;11.32;7.45;;;6.30;99.90;;;;;;4994956;28;20048;-85
2021/09/23 00:30:21;;;;;;;9.60;7.10;;;6.30;99.90;;;;;;5000742;28;20051;-86
2021/09/23 00:32:50;;;;;;;12.07;7.40;;;6.30;99.90;;;;;;5001256;28;20058;-85
2021/09/23 00:35:17;;;;;;;11.85;7.90;;;6.20;99.90;;;;;;4994826;28;20058;-85
2021/09/23 00:37:45;;;;;;;10.57;8.13;;;6.20;99.90;;;;;;4994571;28;20183;-86
2021/09/23 00:40:12;;;;;;;9.02;7.72;;;6.20;99.90;;;;;;4993970;28;20077;-86
2021/09/23 00:42:41;;;;;;;10.25;7.22;;;6.20;99.90;;;;;;4995212;28;20084;-85
2021/09/23 00:45:10;;;;;;;11.25;7.05;;;6.20;99.90;;;;;;4994203;28;20050;-85
2021/09/23 00:47:38;;;;;;;12.02;7.57;;;6.20;99.90;;;;;;4995085;28;20065;-86
2021/09/23 00:50:07;;;;;;;10.07;7.10;;;6.20;99.90;;;;;;4995160;28;20411;-86
2021/09/23 00:52:35;;;;;;;10.55;7.40;;;6.20;99.90;;;;;;4993936;28;20124;-86
2021/09/23 00:55:03;;;;;;;14.82;7.53;;;6.10;99.90;;;;;;4994711;28;20046;-86
2021/09/23 00:57:30;;;;;;;11.63;8.55;;;6.10;99.90;;;;;;4994734;28;20502;-85
2021/09/23 00:59:57;;;;;;;17.85;8.25;;;6.20;99.90;;;;;;4993933;28;20046;-85
2021/09/23 01:02:24;;;;;;;12.10;8.27;;;6.30;99.90;;;;;;4993767;28;20050;-86
2021/09/23 01:04:52;;;;;;;11.25;8.18;;;6.40;99.90;;;;;;4993614;28;20130;-86
2021/09/23 01:07:20;;;;;;;9.50;7.63;;;6.50;99.90;;;;;;4993784;28;20498;-85
2021/09/23 01:09:50;;;;;;;10.30;7.95;;;6.50;99.90;;;;;;4995419;28;20475;-86
2021/09/23 01:12:17;;;;;;;11.50;8.23;;;6.60;99.90;;;;;;4996937;28;20445;-85
2021/09/23 01:14:45;;;;;;;7.72;6.90;;;6.70;99.90;;;;;;5014237;28;20053;-88
2021/09/23 01:17:12;;;;;;;9.02;7.90;;;6.70;99.90;;;;;;4996812;28;20054;-85
2021/09/23 01:19:41;;;;;;;8.68;7.47;;;6.70;99.90;;;;;;5014036;28;20084;-86
2021/09/23 01:22:08;;;;;;;10.88;7.00;;;6.80;99.90;;;;;;4996910;28;20074;-86
2021/09/23 01:24:39;;;;;;;10.68;7.13;;;6.70;99.90;;;;;;4997072;28;20507;-86
2021/09/23 01:27:08;;;;;;;10.00;6.68;;;6.70;99.90;;;;;;4996316;28;20089;-88
2021/09/23 01:29:36;;;;;;;7.85;7.05;;;6.70;99.90;;;;;;4996767;28;20108;-87
2021/09/23 01:32:05;;;;;;;10.68;5.60;;;6.70;99.90;;;;;;5013628;28;20092;-88
2021/09/23 01:34:34;;;;;;;7.60;5.80;;;6.60;99.90;;;;;;4996515;28;20077;-87
2021/09/23 01:37:03;;;;;;;9.50;6.82;;;6.60;99.90;;;;;;5013794;28;20510;-88
2021/09/23 01:39:30;;;;;;;7.68;6.47;;;6.40;99.90;;;;;;5013621;28;20561;-88
2021/09/23 01:41:57;;;;;;;8.05;6.70;;;6.40;99.90;;;;;;5013802;28;20050;-88
2021/09/23 01:44:25;;;;;;;7.07;6.22;;;6.30;99.90;;;;;;4996766;28;20479;-88
2021/09/23 01:46:52;;;;;;;7.70;6.03;;;6.30;99.90;;;;;;5014053;28;20050;-88
2021/09/23 01:49:18;;;;;;;7.20;5.95;;;6.30;99.90;;;;;;5002669;28;20475;-88
2021/09/23 01:51:46;;;;;;;7.22;6.30;;;6.10;99.90;;;;;;5007031;28;20104;-88
2021/09/23 01:54:13;;;;;;;7.10;6.40;;;6.10;99.90;;;;;;4996668;28;20098;-87
2021/09/23 01:56:40;;;;;;;8.82;7.63;;;6.10;99.90;;;;;;4996140;28;20061;-87
2021/09/23 01:59:07;;;;;;;16.50;8.40;;;6.20;99.90;;;;;;5013560;28;20060;-87
2021/09/23 02:01:34;;;;;;;14.48;8.63;;;6.20;99.90;;;;;;4996288;28;20054;-87
2021/09/23 02:04:02;;;;;;;15.60;8.50;;;6.30;99.90;;;;;;4996522;28;20054;-88
2021/09/23 02:06:29;;;;;;;14.88;9.05;;;6.30;99.90;;;;;;4996353;28;20046;-88
2021/09/23 02:08:55;;;;;;;11.10;7.60;;;6.40;99.90;;;;;;4996618;28;20076;-87
2021/09/23 02:11:22;;;;;;;10.15;6.90;;;6.40;99.90;;;;;;5013318;28;20421;-88
2021/09/23 02:13:49;;;;;;;13.73;7.88;;;6.30;99.90;;;;;;5013733;28;20046;-87
2021/09/23 02:16:16;;;;;;;11.20;6.80;;;6.20;99.90;;;;;;4996300;28;20065;-88
2021/09/23 02:18:43;;;;;;;8.70;6.70;;;6.20;99.90;;;;;;4996870;28;20050;-88
2021/09/23 02:21:10;;;;;;;10.70;7.70;;;6.20;99.90;;;;;;4999895;28;20050;-87
2021/09/23 02:23:38;;;;;;;8.38;6.80;;;6.10;99.90;;;;;;5000131;28;20049;-88
2021/09/23 02:26:05;;;;;;;11.63;7.65;;;6.10;99.90;;;;;;5016997;28;20524;-87
2021/09/23 02:28:35;;;;;;;12.93;7.43;;;6.00;99.90;;;;;;5017400;28;20651;-88
2021/09/23 02:31:02;;;;;;;9.65;7.15;;;5.90;99.90;;;;;;4999902;28;20057;-88
2021/09/23 02:33:28;;;;;;;10.65;7.38;;;6.00;99.90;;;;;;4999744;28;20054;-88
2021/09/23 02:35:56;;;;;;;12.65;8.38;;;5.90;99.90;;;;;;4999831;28;20491;-88
2021/09/23 02:38:22;;;;;;;14.63;7.82;;;5.80;99.90;;;;;;5016964;28;20057;-88
2021/09/23 02:40:49;;;;;;;7.43;5.80;;;5.70;99.90;;;;;;4999450;28;20050;-88
2021/09/23 02:43:16;;;;;;;12.32;7.28;;;5.80;99.90;;;;;;5016793;28;20077;-86
2021/09/23 02:45:43;;;;;;;12.32;7.35;;;5.80;99.90;;;;;;4999715;28;20073;-88
2021/09/23 02:48:10;;;;;;;12.00;7.45;;;5.80;99.90;;;;;;4999747;28;20049;-88
2021/09/23 02:50:37;;;;;;;9.98;7.68;;;5.80;99.90;;;;;;5016800;28;20490;-88
2021/09/23 02:53:03;;;;;;;17.35;9.73;;;5.70;99.90;;;;;;4999455;28;20070;-87
2021/09/23 02:55:30;;;;;;;17.63;9.50;;;5.70;99.90;;;;;;5016754;28;20391;-87
2021/09/23 02:57:57;;;;;;;15.68;8.07;;;5.70;99.90;;;;;;5016704;28;20116;-88
2021/09/23 03:00:24;;;;;;;9.93;7.30;;;5.70;99.90;;;;;;5016441;28;20046;-88
2021/09/23 03:02:51;;;;;;;9.98;7.10;;;5.70;99.90;;;;;;4999551;28;20088;-88
2021/09/23 03:05:18;;;;;;;9.75;6.57;;;5.50;99.90;;;;;;5016854;28;20512;-88
2021/09/23 03:07:45;;;;;;;8.23;6.50;;;5.50;99.90;;;;;;5001967;28;20513;-88
2021/09/23 03:10:12;;;;;;;21.58;9.45;;;5.40;99.90;;;;;;5029987;28;20062;-88
2021/09/23 03:12:38;;;;;;;21.42;9.68;;;5.40;99.90;;;;;;4999753;28;20042;-85
2021/09/23 03:15:06;;;;;;;21.63;10.00;;;5.40;99.90;;;;;;4999130;28;20045;-86
2021/09/23 03:17:33;;;;;;;22.23;10.38;;;5.40;99.90;;;;;;4998969;28;20077;-86
2021/09/23 03:19:59;;;;;;;16.73;10.32;;;5.50;99.90;;;;;;4999184;28;20085;-88
2021/09/23 03:22:27;;;;;;;14.85;9.77;;;5.60;99.90;;;;;;4998876;28;20050;-88
2021/09/23 03:24:54;;;;;;;17.80;9.75;;;5.60;99.90;;;;;;4999005;28;20081;-88
2021/09/23 03:27:21;;;;;;;12.15;9.07;;;5.60;99.90;;;;;;4998834;28;20162;-88
2021/09/23 03:29:48;;;;;;;15.73;9.35;;;5.60;99.90;;;;;;5015845;28;20100;-88
2021/09/23 03:32:15;;;;;;;15.45;9.32;;;5.60;99.90;;;;;;4998071;28;20487;-86
2021/09/23 03:34:42;;;;;;;15.95;8.77;;;5.60;99.90;;;;;;4998899;28;20086;-86
2021/09/23 03:37:09;;;;;;;14.65;9.07;;;5.50;99.90;;;;;;4998527;28;20472;-88
2021/09/23 03:39:36;;;;;;;15.75;11.25;;;5.40;99.90;;;;;;5015897;28;20084;-88
2021/09/23 03:42:03;;;;;;;13.23;9.85;;;5.50;99.90;;;;;;4998780;28;20410;-87
2021/09/23 03:44:30;;;;;;;16.17;9.15;;;5.50;99.90;;;;;;4998857;28;20073;-88
2021/09/23 03:46:57;;;;;;;14.23;9.38;;;5.60;99.90;;;;;;4998484;28;20046;-87
2021/09/23 03:49:24;;;;;;;14.07;8.60;;;5.60;99.90;;;;;;4998563;28;20042;-88
2021/09/23 03:51:51;;;;;;;11.63;8.38;;;5.60;99.90;;;;;;4998841;28;20079;-88
2021/09/23 03:54:18;;;;;;;15.10;9.48;;;5.60;99.90;;;;;;4998430;28;20411;-88
2021/09/23 03:56:45;;;;;;;16.80;9.55;;;5.60;99.90;;;;;;5015578;28;20050;-88
2021/09/23 03:59:11;;;;;;;18.67;10.27;;;5.50;99.90;;;;;;4997989;28;20049;-88
2021/09/23 04:01:38;;;;;;;17.13;9.07;;;5.40;99.90;;;;;;4998495;28;20108;-88
2021/09/23 04:04:10;;;;;;;14.77;9.68;;;5.40;99.90;;;;;;5015561;28;20057;-88
2021/09/23 04:06:42;;;;;;;22.33;11.50;;;5.50;99.90;;;;;;4998481;28;20473;-88
2021/09/23 04:09:11;;;;;;;17.15;10.35;;;5.50;99.90;;;;;;4998489;28;20046;-88
2021/09/23 04:11:38;;;;;;;14.70;10.90;;;5.60;99.90;;;;;;5014301;28;20057;-88
2021/09/23 04:14:06;;;;;;;17.17;10.07;;;5.60;99.90;;;;;;4998515;28;20052;-88
2021/09/23 04:16:34;;;;;;;18.40;10.38;;;5.60;99.90;;;;;;4998372;28;20093;-88
2021/09/23 04:19:02;;;;;;;22.85;10.75;;;5.60;99.90;;;;;;4998255;28;20050;-88
2021/09/23 04:21:28;;;;;;;16.23;10.52;;;5.50;99.90;;;;;;4998087;28;20089;-88
2021/09/23 04:23:55;;;;;;;16.60;10.20;;;5.50;99.90;;;;;;4998314;28;20490;-88
2021/09/23 04:26:22;;;;;;;21.55;9.52;;;5.40;99.90;;;;;;5019985;28;20093;-88
2021/09/23 04:28:49;;;;;;;32.72;9.82;;;5.40;99.90;;;;;;5034682;28;20053;-88
2021/09/23 04:31:16;;;;;;;18.52;9.15;;;5.30;99.90;;;;;;5002873;28;20050;-88
2021/09/23 04:33:43;;;;;;;12.68;8.32;;;5.30;99.90;;;;;;4997860;28;20061;-88
2021/09/23 04:36:10;;;;;;;14.20;8.23;;;5.10;99.90;;;;;;4997549;28;20084;-88
2021/09/23 04:38:37;;;;;;;10.15;7.95;;;5.10;99.90;;;;;;4997801;28;20054;-89
2021/09/23 04:41:04;;;;;;;10.18;7.32;;;5.10;99.90;;;;;;4997185;28;20050;-89
2021/09/23 04:43:31;;;;;;;16.25;8.60;;;5.10;99.90;;;;;;5014588;28;20107;-88
2021/09/23 04:45:58;;;;;;;13.77;8.77;;;5.10;99.90;;;;;;5014741;28;20107;-89
2021/09/23 04:48:25;;;;;;;15.02;9.20;;;5.10;99.90;;;;;;4997627;28;20411;-89
2021/09/23 04:50:51;;;;;;;18.38;8.38;;;5.00;99.90;;;;;;4997572;28;20053;-88
2021/09/23 04:53:18;;;;;;;16.00;8.20;;;5.00;99.90;;;;;;4997329;28;20050;-88
2021/09/23 04:55:45;;;;;;;12.65;8.82;;;4.90;99.90;;;;;;4997620;28;20053;-89
2021/09/23 04:58:12;;;;;;;16.13;9.38;;;4.90;99.90;;;;;;4997383;28;20467;-88
2021/09/23 05:00:39;;;;;;;14.88;8.93;;;4.90;99.90;;;;;;4997353;28;20549;-88
2021/09/23 05:03:06;;;;;;;16.33;9.65;;;4.90;99.90;;;;;;4996980;28;20049;-88
2021/09/23 05:05:34;;;;;;;18.73;9.73;;;4.90;99.90;;;;;;4997249;28;20081;-88
2021/09/23 05:08:01;;;;;;;14.40;8.23;;;4.90;99.90;;;;;;5014495;28;20435;-88
2021/09/23 05:10:28;;;;;;;18.00;9.25;;;4.90;99.90;;;;;;4996354;28;20057;-88
2021/09/23 05:12:55;;;;;;;18.77;10.18;;;4.90;99.90;;;;;;4996634;28;20056;-88
2021/09/23 05:15:21;;;;;;;20.85;10.27;;;4.90;99.90;;;;;;5013759;28;20058;-89
2021/09/23 05:17:48;;;;;;;17.63;9.52;;;4.90;99.90;;;;;;5013841;28;20116;-88
2021/09/23 05:20:15;;;;;;;18.10;9.65;;;5.00;99.90;;;;;;4996117;28;20057;-88
2021/09/23 05:22:42;;;;;;;17.13;9.70;;;4.80;99.90;;;;;;4996935;28;20073;-88
2021/09/23 05:25:09;;;;;;;21.05;9.75;;;4.80;99.90;;;;;;5013732;28;20058;-88
2021/09/23 05:27:37;;;;;;;12.85;9.10;;;4.80;99.90;;;;;;5014235;28;20070;-87
2021/09/23 05:30:09;;;;;;;15.80;9.82;;;4.80;99.90;;;;;;5014272;28;20053;-88
2021/09/23 05:32:36;;;;;;;33.38;12.55;;;4.90;99.90;;;;;;5013713;28;20054;-88
2021/09/23 05:35:03;;;;;;;19.55;10.40;;;4.90;99.90;;;;;;4996568;28;20502;-89
2021/09/23 05:37:30;;;;;;;17.67;9.98;;;5.00;99.90;;;;;;4997127;28;20402;-89
2021/09/23 05:39:57;;;;;;;22.00;10.77;;;5.00;99.90;;;;;;5009220;28;20088;-88
2021/09/23 05:42:24;;;;;;;29.30;12.63;;;5.10;99.90;;;;;;5033705;28;20081;-89
2021/09/23 05:44:51;;;;;;;19.85;11.23;;;5.10;99.90;;;;;;5017708;28;20130;-89
2021/09/23 05:47:18;;;;;;;19.85;10.38;;;5.20;99.90;;;;;;5035634;28;20056;-88
2021/09/23 05:49:45;;;;;;;24.25;12.98;;;5.30;99.90;;;;;;5019363;28;20052;-89
2021/09/23 05:52:12;;;;;;;25.20;12.73;;;5.30;99.90;;;;;;4996472;28;20057;-89
2021/09/23 05:54:39;;;;;;;29.17;13.18;;;5.40;99.90;;;;;;4995911;28;20081;-89
2021/09/23 05:57:05;;;;;;;28.33;12.93;;;5.50;99.90;;;;;;4996365;28;20049;-89
2021/09/23 05:59:32;;;;;;;21.70;12.40;;;5.50;99.90;;;;;;5013657;28;20054;-89
2021/09/23 06:01:59;;;;;;;25.15;14.35;;;5.60;99.90;;;;;;5021551;28;20073;-89
2021/09/23 06:04:26;;;;;;;30.25;16.45;;;5.70;99.90;;;;;;5004174;28;20042;-88
2021/09/23 06:06:53;;;;;;;25.10;13.50;;;5.80;99.90;;;;;;5031968;28;20099;-88
2021/09/23 06:09:21;;;;;;;21.95;13.20;;;5.90;99.90;;;;;;5015747;28;20049;-89
2021/09/23 06:11:49;;;;;;;28.98;15.55;;;6.00;99.90;;;;;;5009609;28;20104;-88
2021/09/23 06:14:16;;;;;;;37.67;15.07;;;6.10;99.90;;;;;;5005269;28;20119;-88
2021/09/23 06:16:43;;;;;;;28.88;16.52;;;6.20;99.90;;;;;;5037467;28;20188;-89
2021/09/23 06:19:10;;;;;;;26.83;17.95;;;6.20;99.90;;;;;;5032966;28;20045;-88
2021/09/23 06:21:37;;;;;;;46.88;24.02;;;6.30;99.90;;;;;;5015972;28;20128;-88
2021/09/23 06:24:04;;;;;;;35.13;22.73;;;6.50;99.90;;;;;;5015990;28;20108;-87
2021/09/23 06:26:30;;;;;;;38.17;21.63;;;6.70;99.90;;;;;;5033246;28;20513;-88
2021/09/23 06:28:58;;;;;;;61.47;37.08;;;6.80;99.90;;;;;;5015848;28;20096;-89
2021/09/23 06:31:25;;;;;;;41.17;21.38;;;7.00;99.90;;;;;;5009074;28;20445;-88
2021/09/23 06:33:52;;;;;;;34.15;17.55;;;7.10;99.90;;;;;;5021262;28;20071;-88
2021/09/23 06:36:19;;;;;;;31.60;19.27;;;7.40;99.90;;;;;;5006153;28;20042;-88
2021/09/23 06:38:46;;;;;;;42.40;18.58;;;7.60;99.90;;;;;;5001616;28;20054;-88
2021/09/23 06:41:13;;;;;;;39.22;23.13;;;7.70;99.90;;;;;;4995687;28;20092;-88
2021/09/23 06:43:40;;;;;;;30.85;17.52;;;7.80;99.90;;;;;;4996020;28;20479;-88
2021/09/23 06:46:09;;;;;;;34.03;15.13;;;8.10;99.90;;;;;;4995844;28;20046;-88
2021/09/23 06:48:36;;;;;;;59.90;36.08;;;8.30;99.90;;;;;;4995922;28;20050;-88
2021/09/23 06:51:03;;;;;;;42.00;28.55;;;8.50;99.90;;;;;;4995757;28;20057;-87
2021/09/23 06:53:30;;;;;;;27.25;15.48;;;8.80;99.90;;;;;;4996119;28;20125;-87
2021/09/23 06:55:57;;;;;;;24.48;15.07;;;9.20;99.90;;;;;;4995951;28;20042;-88
2021/09/23 06:58:24;;;;;;;20.20;13.80;;;9.60;99.90;;;;;;4995753;28;20053;-88
2021/09/23 07:00:51;;;;;;;37.55;15.30;;;9.90;99.90;;;;;;5012667;28;20081;-87
2021/09/23 07:03:18;;;;;;;44.33;14.73;;;10.30;99.90;;;;;;4995953;28;20082;-88
2021/09/23 07:05:45;;;;;;;54.92;14.73;;;10.50;99.90;;;;;;5007935;28;20080;-88
2021/09/23 07:08:17;;;;;;;37.35;10.63;;;10.80;99.90;;;;;;5014198;28;20042;-88
2021/09/23 07:10:44;;;;;;;14.07;8.75;;;11.20;99.90;;;;;;4998856;28;20073;-87
2021/09/23 07:13:11;;;;;;;10.02;7.22;;;11.60;99.90;;;;;;5016381;28;20085;-87
2021/09/23 07:15:39;;;;;;;12.63;6.25;;;12.20;99.90;;;;;;4998968;28;20409;-87
2021/09/23 07:18:06;;;;;;;10.77;4.90;;;12.70;99.90;;;;;;5016302;28;20054;-86
2021/09/23 07:20:33;;;;;;;6.53;4.22;;;13.30;99.90;;;;;;4998593;28;20108;-87
2021/09/23 07:23:01;;;;;;;10.73;4.25;;;13.70;99.90;;;;;;4998531;28;20058;-86
2021/09/23 07:25:28;;;;;;;8.70;4.25;;;14.10;99.90;;;;;;4998891;28;20081;-85
2021/09/23 07:27:55;;;;;;;6.60;4.13;;;14.60;99.90;;;;;;4998883;28;20486;-85
2021/09/23 07:30:23;;;;;;;4.85;3.50;;;15.30;99.90;;;;;;4998327;28;20466;-85
2021/09/23 07:32:50;;;;;;;5.38;3.15;;;15.80;99.90;;;;;;4998423;28;20088;-84
2021/09/23 07:35:18;;;;;;;3.35;2.90;;;16.10;99.90;;;;;;4998433;28;20057;-82
2021/09/23 07:37:45;;;;;;;7.13;2.38;;;16.20;99.90;;;;;;5015636;28;20463;-84
2021/09/23 07:40:12;;;;;;;4.88;2.55;;;16.50;99.90;;;;;;5015658;28;20050;-84
2021/09/23 07:42:39;;;;;;;4.55;2.95;;;17.00;99.90;;;;;;4998275;28;20085;-84
2021/09/23 07:45:08;;;;;;;6.57;3.00;;;17.40;99.90;;;;;;5015291;28;20056;-84
2021/09/23 07:47:34;;;;;;;4.95;2.40;;;18.10;99.90;;;;;;4998648;28;20108;-86
2021/09/23 07:50:02;;;;;;;5.15;2.30;;;18.70;99.90;;;;;;4998510;28;20054;-85
2021/09/23 07:52:29;;;;;;;4.05;1.83;;;19.30;99.90;;;;;;4998253;28;20045;-84
2021/09/23 07:54:56;;;;;;;4.78;2.05;;;21.10;99.90;;;;;;4998159;28;20506;-85
2021/09/23 07:57:23;;;;;;;2.03;1.88;;;21.90;99.90;;;;;;4997781;28;20089;-86
2021/09/23 07:59:50;;;;;;;3.25;1.90;;;22.90;99.90;;;;;;4998108;28;20104;-86
2021/09/23 08:02:17;;;;;;;2.40;1.70;;;24.00;95.80;;;;;;5014961;28;20053;-86
2021/09/23 08:04:45;;;;;;;4.05;2.10;;;24.50;92.90;;;;;;4997893;28;20132;-84
2021/09/23 08:07:14;;;;;;;3.03;1.70;;;24.20;91.80;;;;;;4997686;28;20049;-84
2021/09/23 08:09:41;;;;;;;3.90;1.88;;;24.60;92.30;;;;;;4997760;28;20049;-84
2021/09/23 08:12:08;;;;;;;9.93;3.25;;;26.00;87.30;;;;;;5015396;28;20116;-86
2021/09/23 08:14:36;;;;;;;7.68;1.65;;;25.60;84.20;;;;;;4998123;28;20045;-86
2021/09/23 08:17:04;;;;;;;4.18;1.90;;;25.20;83.10;;;;;;4996955;28;20077;-85
2021/09/23 08:19:35;;;;;;;3.83;1.88;;;24.40;85.70;;;;;;4997880;28;20438;-87
2021/09/23 08:22:06;;;;;;;6.35;1.88;;;24.60;83.40;;;;;;4998075;28;20411;-93
2021/09/23 08:24:35;;;;;;;9.50;2.13;;;24.10;84.70;;;;;;4999078;28;20415;-90
2021/09/23 08:27:02;;;;;;;7.35;2.25;;;23.70;86.70;;;;;;5002828;28;20407;-85
2021/09/23 08:29:29;;;;;;;8.88;2.03;;;24.00;87.70;;;;;;5000228;28;20060;-84
2021/09/23 08:31:56;;;;;;;8.20;1.70;;;24.40;86.30;;;;;;5014563;28;20060;-87
2021/09/23 08:34:23;;;;;;;6.13;2.00;;;25.40;83.10;;;;;;4997295;28;20049;-88
2021/09/23 08:36:50;;;;;;;7.90;2.03;;;26.00;81.50;;;;;;4997448;28;20057;-89
2021/09/23 08:39:17;;;;;;;10.43;2.50;;;25.90;79.40;;;;;;4997254;28;20060;-84
2021/09/23 08:41:44;;;;;;;2.28;1.50;;;26.30;80.10;;;;;;4997538;28;20088;-86
2021/09/23 08:44:11;;;;;;;4.63;2.10;;;26.90;76.40;;;;;;5014443;28;20046;-85
2021/09/23 08:46:37;;;;;;;3.33;1.30;;;27.20;77.20;;;;;;5014491;28;20103;-86
2021/09/23 08:49:05;;;;;;;4.70;2.28;;;28.60;71.80;;;;;;5014439;28;20049;-84
2021/09/23 08:51:32;;;;;;;5.43;1.50;;;27.20;71.70;;;;;;5014365;28;20482;-85
2021/09/23 08:53:58;;;;;;;4.13;1.67;;;28.20;70.00;;;;;;4997426;28;20054;-83
2021/09/23 08:56:25;;;;;;;4.65;1.42;;;27.30;69.30;;;;;;5014568;28;20054;-86
2021/09/23 08:58:53;;;;;;;2.60;1.70;;;27.20;69.70;;;;;;4996840;28;20042;-88
2021/09/23 09:01:21;;;;;;;2.33;1.52;;;28.30;68.20;;;;;;4997038;28;20066;-87
2021/09/23 09:03:58;;;;;;;1.23;1.13;;;28.80;65.30;;;;;;4997050;28;20046;-86
2021/09/23 09:06:25;;;;;;;1.35;1.25;;;28.70;65.30;;;;;;4997310;28;20132;-85
2021/09/23 09:08:52;;;;;;;2.67;1.13;;;28.00;63.30;;;;;;4996852;28;20081;-86
2021/09/23 09:11:19;;;;;;;6.30;1.63;;;28.60;65.60;;;;;;4996674;28;20058;-85
2021/09/23 09:13:48;;;;;;;2.10;1.30;;;28.50;63.30;;;;;;5013942;28;20057;-85
2021/09/23 09:16:20;;;;;;;4.88;1.65;;;29.50;63.20;;;;;;5013544;28;20134;-84
2021/09/23 09:18:48;;;;;;;2.30;1.38;;;29.50;61.20;;;;;;4996751;28;20050;-85
2021/09/23 09:21:18;;;;;;;5.80;1.38;;;29.50;61.30;;;;;;4996544;28;20050;-86
2021/09/23 09:23:57;;;;;;;3.03;1.83;;;28.40;61.00;;;;;;5014115;28;20061;-85
2021/09/23 09:26:32;;;;;;;2.83;1.33;;;28.20;63.30;;;;;;5013739;28;20069;-84
2021/09/23 09:29:01;;;;;;;6.20;1.38;;;28.70;63.70;;;;;;4995699;28;20046;-93
2021/09/23 09:31:28;;;;;;;8.85;1.38;;;28.90;60.30;;;;;;4996439;28;20054;-87
2021/09/23 09:33:59;;;;;;;8.73;2.00;;;27.60;63.50;;;;;;4996746;28;20478;-88
2021/09/23 09:36:40;;;;;;;6.65;1.67;;;27.80;62.60;;;;;;5013372;28;20129;-84
2021/09/23 09:39:14;;;;;;;5.05;1.63;;;29.00;62.50;;;;;;4996425;28;20088;-89
2021/09/23 09:41:42;;;;;;;;;;;28.90;60.40;;;;;;4997150;28;20073;-84
2021/09/23 09:44:11;;;;;;;2.83;1.30;;;27.30;63.60;;;;;;4997589;28;20358;-87
2021/09/23 09:46:49;;;;;;;3.42;1.13;;;28.10;63.00;;;;;;5005274;28;20486;-83
2021/09/23 09:49:19;;;;;;;3.00;1.50;;;27.80;63.60;;;;;;4994286;28;20462;-87
2021/09/23 09:51:52;;;;;;;3.70;1.52;;;28.60;62.90;;;;;;5013539;28;20482;-85
2021/09/23 09:54:21;;;;;;;6.72;1.75;;;28.60;60.40;;;;;;4995889;28;20077;-85
2021/09/23 09:56:57;;;;;;;4.40;1.70;;;29.30;60.50;;;;;;4995907;28;20621;-87
2021/09/23 09:59:24;;;;;;;7.45;1.80;;;29.70;58.70;;;;;;5002071;28;20054;-84
2021/09/23 10:01:53;;;;;;;5.50;2.20;;;29.00;59.00;;;;;;5013577;28;20058;-85
2021/09/23 10:04:22;;;;;;;7.13;1.65;;;28.20;60.20;;;;;;5013563;28;20447;-85
2021/09/23 10:06:53;;;;;;;1.75;1.50;;;27.30;62.00;;;;;;4995937;28;20396;-83
2021/09/23 10:09:21;;;;;;;4.72;1.67;;;28.50;63.00;;;;;;4996056;28;20130;-84
2021/09/23 10:11:49;;;;;;;2.08;1.42;;;29.70;60.40;;;;;;4995903;28;20053;-85
2021/09/23 10:14:17;;;;;;;3.92;1.52;;;30.60;57.30;;;;;;4995786;28;20057;-83
2021/09/23 10:16:45;;;;;;;1.65;1.55;;;31.00;57.30;;;;;;5013630;28;20050;-89
2021/09/23 10:19:13;;;;;;;1.58;1.48;;;29.90;56.80;;;;;;4996297;28;20419;-85
2021/09/23 10:21:41;;;;;;;2.30;1.50;;;29.70;59.10;;;;;;4995996;28;20487;-84
2021/09/23 10:24:09;;;;;;;4.03;1.95;;;29.50;59.90;;;;;;4996219;28;20042;-84
2021/09/23 10:26:40;;;;;;;1.88;1.52;;;29.30;58.20;;;;;;4995914;28;20096;-84
2021/09/23 10:29:10;;;;;;;2.35;1.58;;;29.20;59.40;;;;;;4995620;28;20046;-84
2021/09/23 10:31:37;;;;;;;4.22;1.60;;;29.40;59.20;;;;;;5012854;28;20503;-84
2021/09/23 10:34:06;;;;;;;2.67;1.67;;;31.00;56.80;;;;;;5012964;28;20058;-85
2021/09/23 10:36:35;;;;;;;3.00;1.77;;;31.90;56.00;;;;;;4995587;28;20084;-85
2021/09/23 10:39:05;;;;;;;2.03;1.65;;;31.90;55.10;;;;;;5012669;28;20065;-83
2021/09/23 10:41:36;;;;;;;2.92;1.67;;;31.80;55.00;;;;;;4999274;28;20498;-86
2021/09/23 10:44:04;;;;;;;3.47;2.00;;;32.10;53.50;;;;;;4999359;28;20140;-84
2021/09/23 10:46:32;;;;;;;3.05;1.50;;;31.70;54.60;;;;;;5016914;28;20096;-86
2021/09/23 10:49:02;;;;;;;3.60;1.60;;;30.80;55.80;;;;;;5016555;28;20133;-86
2021/09/23 10:51:32;;;;;;;1.98;1.60;;;30.40;56.60;;;;;;4999765;28;20050;-86
2021/09/23 10:54:00;;;;;;;4.47;1.70;;;30.50;55.00;;;;;;5017266;28;20042;-88
2021/09/23 10:56:28;;;;;;;3.30;1.67;;;29.70;56.00;;;;;;5016653;28;20302;-84
2021/09/23 10:58:57;;;;;;;3.08;1.83;;;29.20;58.20;;;;;;4999670;28;20053;-85
2021/09/23 11:01:29;;;;;;;4.30;2.10;;;29.10;58.10;;;;;;5016663;28;20046;-83
2021/09/23 11:03:58;;;;;;;2.20;1.92;;;28.80;58.70;;;;;;5005152;28;20060;-85
2021/09/23 11:06:36;;;;;;;4.45;1.77;;;28.40;59.20;;;;;;5006722;28;20045;-87
2021/09/23 11:09:25;;;;;;;4.57;1.70;;;28.80;59.00;;;;;;4999088;28;20046;-86
2021/09/23 11:11:55;;;;;;;4.45;1.90;;;28.10;59.20;;;;;;5016406;28;20144;-85
2021/09/23 11:14:23;;;;;;;3.85;2.28;;;27.30;61.10;;;;;;4998787;28;20380;-85
2021/09/23 11:16:52;;;;;;;10.57;2.17;;;27.20;60.40;;;;;;4999180;28;20088;-85
2021/09/23 11:19:21;;;;;;;14.75;2.88;;;26.60;64.20;;;;;;4998833;28;20085;-86
2021/09/23 11:21:53;;;;;;;3.45;2.08;;;26.30;64.10;;;;;;4998953;28;20049;-85
2021/09/23 11:24:25;;;;;;;2.40;2.20;;;25.70;64.30;;;;;;4999250;28;20104;-85
2021/09/23 11:26:53;;;;;;;8.13;2.20;;;25.50;64.80;;;;;;4998764;28;20054;-91
2021/09/23 11:29:20;;;;;;;7.45;2.40;;;25.50;66.50;;;;;;5016274;28;20045;-85
2021/09/23 11:31:52;;;;;;;6.03;2.00;;;25.30;65.90;;;;;;4999477;28;20236;-84
2021/09/23 11:34:34;;;;;;;3.45;2.25;;;25.00;66.70;;;;;;5016079;28;20112;-85
2021/09/23 11:37:03;;;;;;;5.85;2.20;;;25.00;67.50;;;;;;4998750;28;20081;-86
2021/09/23 11:39:30;;;;;;;7.85;2.25;;;25.40;67.00;;;;;;4998943;28;20042;-85
2021/09/23 11:42:13;;;;;;;5.25;2.45;;;25.40;67.00;;;;;;4996504;28;20057;-84
2021/09/23 11:44:41;;;;;;;2.30;2.10;;;25.20;67.00;;;;;;4999099;28;20054;-84
2021/09/23 11:47:23;;;;;;;5.15;2.28;;;25.50;67.50;;;;;;5001164;28;20391;-85
2021/09/23 11:49:54;;;;;;;15.88;5.35;;;25.30;68.60;;;;;;5016014;28;20057;-87
2021/09/23 11:52:36;;;;;;;2.33;1.75;;;25.30;68.50;;;;;;4997664;28;20054;-85
2021/09/23 11:55:06;;;;;;;2.55;2.17;;;25.30;70.50;;;;;;4998668;28;20057;-84
2021/09/23 11:57:33;;;;;;;6.57;2.05;;;25.30;67.70;;;;;;4998944;28;20134;-84
2021/09/23 12:00:03;;;;;;;4.75;1.95;;;24.50;69.30;;;;;;4998731;28;20054;-89
2021/09/23 12:02:32;;;;;;;5.32;2.28;;;24.10;69.90;;;;;;5015785;28;20049;-85
2021/09/23 12:05:01;;;;;;;7.95;2.40;;;23.40;72.60;;;;;;4998818;28;20113;-85
2021/09/23 12:07:41;;;;;;;3.47;1.88;;;23.20;74.00;;;;;;4998572;28;20461;-85
2021/09/23 12:10:17;;;;;;;3.55;2.20;;;23.10;75.40;;;;;;5015717;28;20085;-84
2021/09/23 12:12:57;;;;;;;18.02;2.40;;;22.90;73.90;;;;;;4998453;28;20056;-85
2021/09/23 12:15:27;;;;;;;6.00;1.85;;;22.80;74.40;;;;;;5013164;28;20049;-86
2021/09/23 12:17:56;;;;;;;3.00;2.10;;;22.70;74.60;;;;;;5015642;28;20507;-87
2021/09/23 12:20:47;;;;;;;4.57;2.33;;;22.50;74.90;;;;;;5002210;28;20391;-86
2021/09/23 12:23:24;;;;;;;3.17;2.13;;;22.30;76.40;;;;;;5026097;28;20053;-87
2021/09/23 12:26:11;;;;;;;8.10;2.47;;;22.20;75.40;;;;;;5020808;28;20486;-85
2021/09/23 12:28:49;;;;;;;2.63;2.03;;;22.20;77.40;;;;;;4998392;28;20512;-91
2021/09/23 12:31:26;;;;;;;3.42;1.85;;;22.40;74.90;;;;;;5015477;28;20054;-85
2021/09/23 12:33:57;;;;;;;10.65;2.50;;;22.50;75.00;;;;;;4998412;28;20498;-85
2021/09/23 12:36:58;;;;;;;2.00;1.90;;;22.60;75.60;;;;;;5015418;28;20058;-84
2021/09/23 12:39:36;;;;;;;2.08;1.77;;;22.60;76.20;;;;;;4998072;28;20100;-90
2021/09/23 12:42:26;;;;;;;6.32;2.10;;;22.50;73.60;;;;;;4997976;28;20100;-86
2021/09/23 12:45:01;;;;;;;8.25;2.25;;;22.60;73.70;;;;;;4998025;28;20054;-88
2021/09/23 12:47:30;;;;;;;3.55;2.20;;;22.50;71.00;;;;;;4997846;28;20045;-85
2021/09/23 12:50:07;;;;;;;3.03;2.17;;;22.40;73.10;;;;;;4998098;28;20050;-85
2021/09/23 12:52:38;;;;;;;6.22;2.00;;;22.50;72.50;;;;;;4997899;28;20049;-86